sensor_id;sensor_type;location;lat;lon;timestamp;P1;durP1;ratioP1;P2;durP2;ratioP2
1957;SDS011;979;51.076;13.748;2023-05-07T00:01:09;29.77;;;27.13;;
1957;SDS011;979;51.076;13.748;2023-05-07T00:03:37;29.33;;;26.77;;
1957;SDS011;979;51.076;13.748;2023-05-07T00:06:05;28.97;;;26.50;;
1957;SDS011;979;51.076;13.748;2023-05-07T00:08:34;29.17;;;26.97;;
1957;SDS011;979;51.076;13.748;2023-05-07T00:11:02;29.97;;;27.67;;
1957;SDS011;979;51.076;13.748;2023-05-07T00:13:31;31.83;;;28.97;;
1957;SDS011;979;51.076;13.748;2023-05-07T00:16:02;31.23;;;28.13;;
1957;SDS011;979;51.076;13.748;2023-05-07T00:18:31;31.90;;;28.70;;
1957;SDS011;979;51.076;13.748;2023-05-07T00:21:01;30.77;;;28.10;;
1957;SDS011;979;51.076;13.748;2023-05-07T00:23:30;31.77;;;28.97;;
1957;SDS011;979;51.076;13.748;2023-05-07T00:25:59;31.20;;;28.60;;
1957;SDS011;979;51.076;13.748;2023-05-07T00:28:27;32.73;;;29.67;;
1957;SDS011;979;51.076;13.748;2023-05-07T00:30:55;32.20;;;29.40;;
1957;SDS011;979;51.076;13.748;2023-05-07T00:33:24;32.40;;;29.27;;
1957;SDS011;979;51.076;13.748;2023-05-07T00:35:54;31.67;;;28.93;;
1957;SDS011;979;51.076;13.748;2023-05-07T00:38:22;31.43;;;28.67;;
1957;SDS011;979;51.076;13.748;2023-05-07T00:40:53;31.67;;;28.90;;
1957;SDS011;979;51.076;13.748;2023-05-07T00:43:21;33.37;;;30.17;;
1957;SDS011;979;51.076;13.748;2023-05-07T00:45:49;33.07;;;30.00;;
1957;SDS011;979;51.076;13.748;2023-05-07T00:48:19;31.43;;;28.80;;
1957;SDS011;979;51.076;13.748;2023-05-07T00:50:48;31.20;;;28.40;;
1957;SDS011;979;51.076;13.748;2023-05-07T00:53:17;30.90;;;28.20;;
1957;SDS011;979;51.076;13.748;2023-05-07T00:55:48;29.57;;;26.97;;
1957;SDS011;979;51.076;13.748;2023-05-07T00:58:16;29.93;;;27.37;;
1957;SDS011;979;51.076;13.748;2023-05-07T01:00:44;29.43;;;26.93;;
1957;SDS011;979;51.076;13.748;2023-05-07T01:03:13;31.00;;;28.40;;
1957;SDS011;979;51.076;13.748;2023-05-07T01:05:42;29.80;;;27.07;;
1957;SDS011;979;51.076;13.748;2023-05-07T01:08:13;27.80;;;25.70;;
1957;SDS011;979;51.076;13.748;2023-05-07T01:10:44;30.03;;;27.60;;
1957;SDS011;979;51.076;13.748;2023-05-07T01:13:15;29.60;;;27.10;;
1957;SDS011;979;51.076;13.748;2023-05-07T01:15:44;31.80;;;29.10;;
1957;SDS011;979;51.076;13.748;2023-05-07T01:18:12;32.20;;;29.40;;
1957;SDS011;979;51.076;13.748;2023-05-07T01:20:41;33.10;;;30.07;;
1957;SDS011;979;51.076;13.748;2023-05-07T01:23:12;29.60;;;27.13;;
1957;SDS011;979;51.076;13.748;2023-05-07T01:25:40;31.13;;;28.57;;
1957;SDS011;979;51.076;13.748;2023-05-07T01:28:11;30.30;;;27.70;;
1957;SDS011;979;51.076;13.748;2023-05-07T01:30:42;30.93;;;28.50;;
1957;SDS011;979;51.076;13.748;2023-05-07T01:33:15;31.07;;;28.53;;
1957;SDS011;979;51.076;13.748;2023-05-07T01:35:50;30.33;;;27.83;;
1957;SDS011;979;51.076;13.748;2023-05-07T01:38:23;29.80;;;27.60;;
1957;SDS011;979;51.076;13.748;2023-05-07T01:41:00;31.10;;;28.53;;
1957;SDS011;979;51.076;13.748;2023-05-07T01:43:34;31.20;;;28.63;;
1957;SDS011;979;51.076;13.748;2023-05-07T01:46:05;30.33;;;28.00;;
1957;SDS011;979;51.076;13.748;2023-05-07T01:48:41;29.90;;;27.40;;
1957;SDS011;979;51.076;13.748;2023-05-07T01:51:20;30.83;;;28.23;;
1957;SDS011;979;51.076;13.748;2023-05-07T01:53:54;30.23;;;27.63;;
1957;SDS011;979;51.076;13.748;2023-05-07T01:56:32;32.20;;;29.40;;
1957;SDS011;979;51.076;13.748;2023-05-07T01:59:04;30.57;;;27.97;;
1957;SDS011;979;51.076;13.748;2023-05-07T02:01:32;29.87;;;27.40;;
1957;SDS011;979;51.076;13.748;2023-05-07T02:04:06;29.20;;;26.70;;
1957;SDS011;979;51.076;13.748;2023-05-07T02:06:39;31.17;;;28.53;;
1957;SDS011;979;51.076;13.748;2023-05-07T02:09:15;29.90;;;27.20;;
1957;SDS011;979;51.076;13.748;2023-05-07T02:11:57;31.13;;;28.40;;
1957;SDS011;979;51.076;13.748;2023-05-07T02:14:28;29.53;;;27.23;;
1957;SDS011;979;51.076;13.748;2023-05-07T02:16:58;31.10;;;28.40;;
1957;SDS011;979;51.076;13.748;2023-05-07T02:19:34;30.83;;;27.90;;
1957;SDS011;979;51.076;13.748;2023-05-07T02:22:07;30.60;;;27.97;;
1957;SDS011;979;51.076;13.748;2023-05-07T02:24:39;30.10;;;27.70;;
1957;SDS011;979;51.076;13.748;2023-05-07T02:27:11;28.63;;;26.43;;
1957;SDS011;979;51.076;13.748;2023-05-07T02:29:40;29.17;;;26.77;;
1957;SDS011;979;51.076;13.748;2023-05-07T02:32:11;29.30;;;27.00;;
1957;SDS011;979;51.076;13.748;2023-05-07T02:34:42;27.10;;;25.00;;
1957;SDS011;979;51.076;13.748;2023-05-07T02:37:12;27.30;;;25.10;;
1957;SDS011;979;51.076;13.748;2023-05-07T02:39:47;28.80;;;26.30;;
1957;SDS011;979;51.076;13.748;2023-05-07T02:42:27;28.87;;;26.57;;
1957;SDS011;979;51.076;13.748;2023-05-07T02:44:59;26.63;;;24.43;;
1957;SDS011;979;51.076;13.748;2023-05-07T02:47:37;28.23;;;26.00;;
1957;SDS011;979;51.076;13.748;2023-05-07T02:50:06;26.57;;;24.33;;
1957;SDS011;979;51.076;13.748;2023-05-07T02:52:35;28.30;;;26.10;;
1957;SDS011;979;51.076;13.748;2023-05-07T02:55:06;26.37;;;24.47;;
1957;SDS011;979;51.076;13.748;2023-05-07T02:57:34;26.87;;;24.87;;
1957;SDS011;979;51.076;13.748;2023-05-07T03:00:11;25.70;;;24.10;;
1957;SDS011;979;51.076;13.748;2023-05-07T03:03:01;25.20;;;23.33;;
1957;SDS011;979;51.076;13.748;2023-05-07T03:05:42;26.20;;;24.37;;
1957;SDS011;979;51.076;13.748;2023-05-07T03:08:18;25.03;;;23.23;;
1957;SDS011;979;51.076;13.748;2023-05-07T03:10:56;25.70;;;23.80;;
1957;SDS011;979;51.076;13.748;2023-05-07T03:13:28;27.03;;;24.93;;
1957;SDS011;979;51.076;13.748;2023-05-07T03:16:07;24.90;;;23.27;;
1957;SDS011;979;51.076;13.748;2023-05-07T03:18:42;26.67;;;24.67;;
1957;SDS011;979;51.076;13.748;2023-05-07T03:21:11;26.93;;;24.83;;
1957;SDS011;979;51.076;13.748;2023-05-07T03:23:45;26.83;;;24.83;;
1957;SDS011;979;51.076;13.748;2023-05-07T03:26:24;26.60;;;24.30;;
1957;SDS011;979;51.076;13.748;2023-05-07T03:29:01;27.97;;;25.83;;
1957;SDS011;979;51.076;13.748;2023-05-07T03:31:35;27.47;;;25.27;;
1957;SDS011;979;51.076;13.748;2023-05-07T03:34:11;26.87;;;24.37;;
1957;SDS011;979;51.076;13.748;2023-05-07T03:36:41;28.23;;;26.00;;
1957;SDS011;979;51.076;13.748;2023-05-07T03:39:17;27.50;;;25.40;;
1957;SDS011;979;51.076;13.748;2023-05-07T03:41:53;26.30;;;23.93;;
1957;SDS011;979;51.076;13.748;2023-05-07T03:44:31;26.77;;;24.47;;
1957;SDS011;979;51.076;13.748;2023-05-07T03:47:07;28.13;;;25.47;;
1957;SDS011;979;51.076;13.748;2023-05-07T03:49:49;28.67;;;26.27;;
1957;SDS011;979;51.076;13.748;2023-05-07T03:52:24;28.30;;;26.03;;
1957;SDS011;979;51.076;13.748;2023-05-07T03:55:00;27.77;;;25.77;;
1957;SDS011;979;51.076;13.748;2023-05-07T03:57:53;28.30;;;25.93;;
1957;SDS011;979;51.076;13.748;2023-05-07T04:00:29;25.83;;;23.73;;
1957;SDS011;979;51.076;13.748;2023-05-07T04:03:15;28.50;;;26.00;;
1957;SDS011;979;51.076;13.748;2023-05-07T04:06:00;28.13;;;25.83;;
1957;SDS011;979;51.076;13.748;2023-05-07T04:08:32;29.07;;;26.47;;
1957;SDS011;979;51.076;13.748;2023-05-07T04:11:14;29.13;;;26.60;;
1957;SDS011;979;51.076;13.748;2023-05-07T04:13:47;29.60;;;26.67;;
1957;SDS011;979;51.076;13.748;2023-05-07T04:16:23;28.10;;;25.60;;
1957;SDS011;979;51.076;13.748;2023-05-07T04:18:57;28.37;;;25.80;;
1957;SDS011;979;51.076;13.748;2023-05-07T04:21:26;28.90;;;26.60;;
1957;SDS011;979;51.076;13.748;2023-05-07T04:23:55;28.00;;;25.40;;
1957;SDS011;979;51.076;13.748;2023-05-07T04:26:31;28.10;;;25.60;;
1957;SDS011;979;51.076;13.748;2023-05-07T04:29:01;28.00;;;25.70;;
1957;SDS011;979;51.076;13.748;2023-05-07T04:31:33;30.20;;;27.50;;
1957;SDS011;979;51.076;13.748;2023-05-07T04:34:01;26.70;;;24.60;;
1957;SDS011;979;51.076;13.748;2023-05-07T04:36:41;25.67;;;23.67;;
1957;SDS011;979;51.076;13.748;2023-05-07T04:39:14;26.27;;;24.23;;
1957;SDS011;979;51.076;13.748;2023-05-07T04:41:48;25.73;;;23.73;;
1957;SDS011;979;51.076;13.748;2023-05-07T04:44:36;29.07;;;26.33;;
1957;SDS011;979;51.076;13.748;2023-05-07T04:47:17;25.67;;;23.73;;
1957;SDS011;979;51.076;13.748;2023-05-07T04:49:46;26.27;;;24.30;;
1957;SDS011;979;51.076;13.748;2023-05-07T04:52:19;26.70;;;24.60;;
1957;SDS011;979;51.076;13.748;2023-05-07T04:54:54;26.47;;;24.33;;
1957;SDS011;979;51.076;13.748;2023-05-07T04:57:25;27.10;;;24.93;;
1957;SDS011;979;51.076;13.748;2023-05-07T04:59:59;25.20;;;23.30;;
1957;SDS011;979;51.076;13.748;2023-05-07T05:02:39;26.20;;;24.50;;
1957;SDS011;979;51.076;13.748;2023-05-07T05:05:20;26.77;;;24.67;;
1957;SDS011;979;51.076;13.748;2023-05-07T05:08:03;27.10;;;24.70;;
1957;SDS011;979;51.076;13.748;2023-05-07T05:10:40;27.20;;;24.93;;
1957;SDS011;979;51.076;13.748;2023-05-07T05:13:26;26.73;;;24.53;;
1957;SDS011;979;51.076;13.748;2023-05-07T05:16:18;26.63;;;24.63;;
1957;SDS011;979;51.076;13.748;2023-05-07T05:19:04;26.77;;;24.53;;
1957;SDS011;979;51.076;13.748;2023-05-07T05:21:39;26.37;;;24.33;;
1957;SDS011;979;51.076;13.748;2023-05-07T05:24:18;26.30;;;24.53;;
1957;SDS011;979;51.076;13.748;2023-05-07T05:26:49;26.83;;;24.63;;
1957;SDS011;979;51.076;13.748;2023-05-07T05:29:25;25.57;;;23.67;;
1957;SDS011;979;51.076;13.748;2023-05-07T05:32:02;25.43;;;23.47;;
1957;SDS011;979;51.076;13.748;2023-05-07T05:34:37;27.70;;;25.60;;
1957;SDS011;979;51.076;13.748;2023-05-07T05:37:18;26.67;;;24.57;;
1957;SDS011;979;51.076;13.748;2023-05-07T05:39:54;26.43;;;24.47;;
1957;SDS011;979;51.076;13.748;2023-05-07T05:42:39;26.97;;;24.77;;
1957;SDS011;979;51.076;13.748;2023-05-07T05:45:18;27.70;;;25.70;;
1957;SDS011;979;51.076;13.748;2023-05-07T05:47:48;26.77;;;24.60;;
1957;SDS011;979;51.076;13.748;2023-05-07T05:50:21;25.77;;;23.73;;
1957;SDS011;979;51.076;13.748;2023-05-07T05:52:58;26.73;;;24.37;;
1957;SDS011;979;51.076;13.748;2023-05-07T05:55:34;26.03;;;23.73;;
1957;SDS011;979;51.076;13.748;2023-05-07T05:58:14;27.13;;;25.17;;
1957;SDS011;979;51.076;13.748;2023-05-07T06:00:58;25.83;;;23.77;;
1957;SDS011;979;51.076;13.748;2023-05-07T06:03:40;24.50;;;22.80;;
1957;SDS011;979;51.076;13.748;2023-05-07T06:06:30;23.30;;;21.67;;
1957;SDS011;979;51.076;13.748;2023-05-07T06:09:08;23.13;;;21.70;;
1957;SDS011;979;51.076;13.748;2023-05-07T06:11:44;23.80;;;22.00;;
1957;SDS011;979;51.076;13.748;2023-05-07T06:14:19;23.33;;;21.70;;
1957;SDS011;979;51.076;13.748;2023-05-07T06:17:01;22.30;;;20.90;;
1957;SDS011;979;51.076;13.748;2023-05-07T06:19:45;23.60;;;22.10;;
1957;SDS011;979;51.076;13.748;2023-05-07T06:22:24;24.17;;;22.50;;
1957;SDS011;979;51.076;13.748;2023-05-07T06:25:00;24.80;;;22.93;;
1957;SDS011;979;51.076;13.748;2023-05-07T06:27:35;25.83;;;23.83;;
1957;SDS011;979;51.076;13.748;2023-05-07T06:30:08;26.23;;;24.23;;
1957;SDS011;979;51.076;13.748;2023-05-07T06:32:49;24.07;;;22.57;;
1957;SDS011;979;51.076;13.748;2023-05-07T06:35:25;25.00;;;23.20;;
1957;SDS011;979;51.076;13.748;2023-05-07T06:38:01;23.80;;;22.30;;
1957;SDS011;979;51.076;13.748;2023-05-07T06:40:37;24.43;;;22.83;;
1957;SDS011;979;51.076;13.748;2023-05-07T06:43:11;24.17;;;22.50;;
1957;SDS011;979;51.076;13.748;2023-05-07T06:46:05;21.50;;;20.40;;
1957;SDS011;979;51.076;13.748;2023-05-07T06:51:39;23.83;;;22.10;;
1957;SDS011;979;51.076;13.748;2023-05-07T06:54:17;24.10;;;22.30;;
1957;SDS011;979;51.076;13.748;2023-05-07T06:57:06;24.20;;;22.30;;
1957;SDS011;979;51.076;13.748;2023-05-07T07:00:13;24.97;;;23.27;;
1957;SDS011;979;51.076;13.748;2023-05-07T07:03:03;25.37;;;23.70;;
1957;SDS011;979;51.076;13.748;2023-05-07T07:06:05;24.77;;;22.93;;
1957;SDS011;979;51.076;13.748;2023-05-07T07:08:57;23.97;;;22.27;;
1957;SDS011;979;51.076;13.748;2023-05-07T07:11:29;24.50;;;23.00;;
1957;SDS011;979;51.076;13.748;2023-05-07T07:14:09;21.90;;;20.50;;
1957;SDS011;979;51.076;13.748;2023-05-07T07:16:55;20.33;;;19.23;;
1957;SDS011;979;51.076;13.748;2023-05-07T07:19:33;20.90;;;19.70;;
1957;SDS011;979;51.076;13.748;2023-05-07T07:22:23;20.40;;;19.40;;
1957;SDS011;979;51.076;13.748;2023-05-07T07:28:53;20.53;;;19.33;;
1957;SDS011;979;51.076;13.748;2023-05-07T07:31:50;20.97;;;19.77;;
1957;SDS011;979;51.076;13.748;2023-05-07T07:34:26;20.20;;;19.20;;
1957;SDS011;979;51.076;13.748;2023-05-07T07:37:12;20.53;;;19.43;;
1957;SDS011;979;51.076;13.748;2023-05-07T07:40:41;19.07;;;18.17;;
1957;SDS011;979;51.076;13.748;2023-05-07T07:43:40;20.20;;;19.30;;
1957;SDS011;979;51.076;13.748;2023-05-07T07:46:11;19.87;;;18.87;;
1957;SDS011;979;51.076;13.748;2023-05-07T07:48:50;20.60;;;19.40;;
1957;SDS011;979;51.076;13.748;2023-05-07T07:51:36;19.23;;;18.23;;
1957;SDS011;979;51.076;13.748;2023-05-07T07:54:15;19.60;;;18.60;;
1957;SDS011;979;51.076;13.748;2023-05-07T07:57:00;19.10;;;18.30;;
1957;SDS011;979;51.076;13.748;2023-05-07T07:59:35;20.40;;;19.30;;
1957;SDS011;979;51.076;13.748;2023-05-07T08:02:11;20.90;;;19.80;;
1957;SDS011;979;51.076;13.748;2023-05-07T08:04:42;20.47;;;19.37;;
1957;SDS011;979;51.076;13.748;2023-05-07T08:07:29;20.10;;;19.10;;
1957;SDS011;979;51.076;13.748;2023-05-07T08:10:03;20.50;;;19.60;;
1957;SDS011;979;51.076;13.748;2023-05-07T08:12:36;19.83;;;18.93;;
1957;SDS011;979;51.076;13.748;2023-05-07T08:15:28;19.80;;;18.90;;
1957;SDS011;979;51.076;13.748;2023-05-07T08:18:01;19.40;;;18.50;;
1957;SDS011;979;51.076;13.748;2023-05-07T08:20:44;19.47;;;18.60;;
1957;SDS011;979;51.076;13.748;2023-05-07T08:23:16;19.13;;;18.23;;
1957;SDS011;979;51.076;13.748;2023-05-07T08:25:45;18.57;;;17.87;;
1957;SDS011;979;51.076;13.748;2023-05-07T08:28:22;19.73;;;18.83;;
1957;SDS011;979;51.076;13.748;2023-05-07T08:30:58;19.27;;;18.37;;
1957;SDS011;979;51.076;13.748;2023-05-07T08:33:32;19.03;;;18.23;;
1957;SDS011;979;51.076;13.748;2023-05-07T08:36:05;18.97;;;18.20;;
1957;SDS011;979;51.076;13.748;2023-05-07T08:38:34;20.37;;;18.93;;
1957;SDS011;979;51.076;13.748;2023-05-07T08:44:26;21.50;;;20.50;;
1957;SDS011;979;51.076;13.748;2023-05-07T08:47:15;21.67;;;20.70;;
1957;SDS011;979;51.076;13.748;2023-05-07T08:50:43;21.63;;;20.43;;
1957;SDS011;979;51.076;13.748;2023-05-07T08:53:39;22.17;;;20.90;;
1957;SDS011;979;51.076;13.748;2023-05-07T08:57:07;21.80;;;20.40;;
1957;SDS011;979;51.076;13.748;2023-05-07T08:59:58;22.27;;;21.00;;
1957;SDS011;979;51.076;13.748;2023-05-07T09:02:53;22.43;;;21.13;;
1957;SDS011;979;51.076;13.748;2023-05-07T09:05:32;21.87;;;20.57;;
1957;SDS011;979;51.076;13.748;2023-05-07T09:08:07;23.13;;;21.47;;
1957;SDS011;979;51.076;13.748;2023-05-07T09:10:49;21.17;;;20.10;;
1957;SDS011;979;51.076;13.748;2023-05-07T09:13:34;21.30;;;20.10;;
1957;SDS011;979;51.076;13.748;2023-05-07T09:16:20;20.37;;;19.30;;
1957;SDS011;979;51.076;13.748;2023-05-07T09:19:32;21.60;;;20.33;;
1957;SDS011;979;51.076;13.748;2023-05-07T09:22:29;21.57;;;20.50;;
1957;SDS011;979;51.076;13.748;2023-05-07T09:25:09;22.00;;;20.60;;
1957;SDS011;979;51.076;13.748;2023-05-07T09:28:14;21.80;;;20.40;;
1957;SDS011;979;51.076;13.748;2023-05-07T09:31:00;21.97;;;20.83;;
1957;SDS011;979;51.076;13.748;2023-05-07T09:33:39;20.77;;;19.67;;
1957;SDS011;979;51.076;13.748;2023-05-07T09:36:24;22.00;;;20.80;;
1957;SDS011;979;51.076;13.748;2023-05-07T09:38:56;21.10;;;20.07;;
1957;SDS011;979;51.076;13.748;2023-05-07T09:41:28;22.23;;;20.93;;
1957;SDS011;979;51.076;13.748;2023-05-07T09:44:10;22.17;;;20.87;;
1957;SDS011;979;51.076;13.748;2023-05-07T09:46:43;21.27;;;20.17;;
1957;SDS011;979;51.076;13.748;2023-05-07T09:49:23;21.50;;;20.40;;
1957;SDS011;979;51.076;13.748;2023-05-07T09:52:00;21.70;;;20.60;;
1957;SDS011;979;51.076;13.748;2023-05-07T09:54:33;20.93;;;19.67;;
1957;SDS011;979;51.076;13.748;2023-05-07T09:57:05;21.57;;;20.37;;
1957;SDS011;979;51.076;13.748;2023-05-07T09:59:34;22.90;;;21.60;;
1957;SDS011;979;51.076;13.748;2023-05-07T10:02:09;21.93;;;20.73;;
1957;SDS011;979;51.076;13.748;2023-05-07T10:04:45;22.90;;;21.33;;
1957;SDS011;979;51.076;13.748;2023-05-07T10:07:19;21.77;;;20.57;;
1957;SDS011;979;51.076;13.748;2023-05-07T10:09:51;22.80;;;21.37;;
1957;SDS011;979;51.076;13.748;2023-05-07T10:12:30;23.27;;;21.80;;
1957;SDS011;979;51.076;13.748;2023-05-07T10:15:09;23.13;;;21.73;;
1957;SDS011;979;51.076;13.748;2023-05-07T10:17:44;24.13;;;22.70;;
1957;SDS011;979;51.076;13.748;2023-05-07T10:20:12;21.70;;;20.60;;
1957;SDS011;979;51.076;13.748;2023-05-07T10:22:45;23.47;;;22.07;;
1957;SDS011;979;51.076;13.748;2023-05-07T10:25:21;22.67;;;21.47;;
1957;SDS011;979;51.076;13.748;2023-05-07T10:27:53;24.70;;;23.20;;
1957;SDS011;979;51.076;13.748;2023-05-07T10:30:34;22.27;;;21.00;;
1957;SDS011;979;51.076;13.748;2023-05-07T10:33:10;21.67;;;20.47;;
1957;SDS011;979;51.076;13.748;2023-05-07T10:35:44;22.03;;;20.80;;
1957;SDS011;979;51.076;13.748;2023-05-07T10:38:16;22.80;;;21.60;;
1957;SDS011;979;51.076;13.748;2023-05-07T10:40:46;23.10;;;21.60;;
1957;SDS011;979;51.076;13.748;2023-05-07T10:43:17;22.27;;;21.07;;
1957;SDS011;979;51.076;13.748;2023-05-07T10:46:09;22.77;;;21.57;;
1957;SDS011;979;51.076;13.748;2023-05-07T10:55:20;20.63;;;19.73;;
1957;SDS011;979;51.076;13.748;2023-05-07T11:01:13;21.33;;;20.30;;
1957;SDS011;979;51.076;13.748;2023-05-07T11:10:03;21.33;;;20.33;;
1957;SDS011;979;51.076;13.748;2023-05-07T11:12:55;23.67;;;22.23;;
1957;SDS011;979;51.076;13.748;2023-05-07T11:15:42;23.37;;;22.07;;
1957;SDS011;979;51.076;13.748;2023-05-07T11:18:45;22.80;;;21.70;;
1957;SDS011;979;51.076;13.748;2023-05-07T11:21:31;22.70;;;21.53;;
1957;SDS011;979;51.076;13.748;2023-05-07T11:24:08;21.40;;;20.40;;
1957;SDS011;979;51.076;13.748;2023-05-07T11:26:48;21.27;;;20.20;;
1957;SDS011;979;51.076;13.748;2023-05-07T11:29:21;21.47;;;20.50;;
1957;SDS011;979;51.076;13.748;2023-05-07T11:31:57;23.40;;;22.07;;
1957;SDS011;979;51.076;13.748;2023-05-07T11:34:32;22.60;;;21.40;;
1957;SDS011;979;51.076;13.748;2023-05-07T11:37:01;23.83;;;22.43;;
1957;SDS011;979;51.076;13.748;2023-05-07T11:39:47;22.30;;;21.30;;
1957;SDS011;979;51.076;13.748;2023-05-07T11:42:25;20.67;;;19.63;;
1957;SDS011;979;51.076;13.748;2023-05-07T11:44:57;21.63;;;20.53;;
1957;SDS011;979;51.076;13.748;2023-05-07T11:47:26;21.87;;;20.77;;
1957;SDS011;979;51.076;13.748;2023-05-07T11:50:01;21.17;;;20.10;;
1957;SDS011;979;51.076;13.748;2023-05-07T11:52:35;21.27;;;20.20;;
1957;SDS011;979;51.076;13.748;2023-05-07T11:55:18;22.20;;;21.10;;
1957;SDS011;979;51.076;13.748;2023-05-07T11:57:56;22.70;;;21.50;;
1957;SDS011;979;51.076;13.748;2023-05-07T12:00:26;22.70;;;21.37;;
1957;SDS011;979;51.076;13.748;2023-05-07T12:02:54;21.17;;;20.17;;
1957;SDS011;979;51.076;13.748;2023-05-07T12:05:23;21.80;;;20.60;;
1957;SDS011;979;51.076;13.748;2023-05-07T12:07:55;21.20;;;20.20;;
1957;SDS011;979;51.076;13.748;2023-05-07T12:10:25;22.47;;;21.27;;
1957;SDS011;979;51.076;13.748;2023-05-07T12:12:53;22.40;;;21.30;;
1957;SDS011;979;51.076;13.748;2023-05-07T12:15:22;21.87;;;20.57;;
1957;SDS011;979;51.076;13.748;2023-05-07T12:17:52;20.50;;;19.60;;
1957;SDS011;979;51.076;13.748;2023-05-07T12:20:21;21.43;;;20.37;;
1957;SDS011;979;51.076;13.748;2023-05-07T12:22:49;20.27;;;19.37;;
1957;SDS011;979;51.076;13.748;2023-05-07T12:25:21;22.93;;;21.73;;
1957;SDS011;979;51.076;13.748;2023-05-07T12:27:53;22.13;;;21.03;;
1957;SDS011;979;51.076;13.748;2023-05-07T12:30:24;21.87;;;20.73;;
1957;SDS011;979;51.076;13.748;2023-05-07T12:32:54;23.10;;;21.80;;
1957;SDS011;979;51.076;13.748;2023-05-07T12:35:26;21.90;;;20.80;;
1957;SDS011;979;51.076;13.748;2023-05-07T12:37:55;22.67;;;21.57;;
1957;SDS011;979;51.076;13.748;2023-05-07T12:40:34;21.80;;;20.80;;
1957;SDS011;979;51.076;13.748;2023-05-07T12:43:03;21.80;;;20.80;;
1957;SDS011;979;51.076;13.748;2023-05-07T12:45:35;21.63;;;20.57;;
1957;SDS011;979;51.076;13.748;2023-05-07T12:48:06;20.90;;;19.90;;
1957;SDS011;979;51.076;13.748;2023-05-07T12:50:36;20.33;;;19.20;;
1957;SDS011;979;51.076;13.748;2023-05-07T12:53:05;21.40;;;20.40;;
1957;SDS011;979;51.076;13.748;2023-05-07T12:55:40;22.30;;;21.20;;
1957;SDS011;979;51.076;13.748;2023-05-07T12:58:15;21.70;;;20.73;;
1957;SDS011;979;51.076;13.748;2023-05-07T13:00:45;21.50;;;20.50;;
1957;SDS011;979;51.076;13.748;2023-05-07T13:03:23;21.80;;;20.80;;
1957;SDS011;979;51.076;13.748;2023-05-07T13:05:53;20.60;;;19.70;;
1957;SDS011;979;51.076;13.748;2023-05-07T13:08:25;20.80;;;19.90;;
1957;SDS011;979;51.076;13.748;2023-05-07T13:10:56;20.63;;;19.83;;
1957;SDS011;979;51.076;13.748;2023-05-07T13:13:28;22.33;;;21.33;;
1957;SDS011;979;51.076;13.748;2023-05-07T13:15:58;20.43;;;19.50;;
1957;SDS011;979;51.076;13.748;2023-05-07T13:18:28;21.97;;;20.97;;
1957;SDS011;979;51.076;13.748;2023-05-07T13:20:59;21.10;;;20.17;;
1957;SDS011;979;51.076;13.748;2023-05-07T13:23:30;20.20;;;19.40;;
1957;SDS011;979;51.076;13.748;2023-05-07T13:25:59;20.50;;;19.60;;
1957;SDS011;979;51.076;13.748;2023-05-07T13:28:36;21.50;;;20.50;;
1957;SDS011;979;51.076;13.748;2023-05-07T13:31:05;20.90;;;19.80;;
1957;SDS011;979;51.076;13.748;2023-05-07T13:33:35;21.30;;;20.20;;
1957;SDS011;979;51.076;13.748;2023-05-07T13:36:03;20.43;;;19.53;;
1957;SDS011;979;51.076;13.748;2023-05-07T13:38:32;20.40;;;19.60;;
1957;SDS011;979;51.076;13.748;2023-05-07T13:41:03;18.80;;;18.00;;
1957;SDS011;979;51.076;13.748;2023-05-07T13:43:31;18.77;;;18.03;;
1957;SDS011;979;51.076;13.748;2023-05-07T13:46:00;20.67;;;19.77;;
1957;SDS011;979;51.076;13.748;2023-05-07T13:48:28;20.50;;;19.60;;
1957;SDS011;979;51.076;13.748;2023-05-07T13:51:00;20.17;;;19.37;;
1957;SDS011;979;51.076;13.748;2023-05-07T13:53:28;20.37;;;19.47;;
1957;SDS011;979;51.076;13.748;2023-05-07T13:55:56;20.67;;;19.67;;
1957;SDS011;979;51.076;13.748;2023-05-07T13:58:25;20.23;;;19.23;;
1957;SDS011;979;51.076;13.748;2023-05-07T14:00:53;19.33;;;18.53;;
1957;SDS011;979;51.076;13.748;2023-05-07T14:03:21;20.80;;;19.80;;
1957;SDS011;979;51.076;13.748;2023-05-07T14:05:50;19.60;;;18.80;;
1957;SDS011;979;51.076;13.748;2023-05-07T14:08:20;19.70;;;18.90;;
1957;SDS011;979;51.076;13.748;2023-05-07T14:10:48;18.67;;;17.97;;
1957;SDS011;979;51.076;13.748;2023-05-07T14:13:17;19.43;;;18.63;;
1957;SDS011;979;51.076;13.748;2023-05-07T14:15:45;19.40;;;18.50;;
1957;SDS011;979;51.076;13.748;2023-05-07T14:18:15;19.23;;;18.43;;
1957;SDS011;979;51.076;13.748;2023-05-07T14:20:43;18.20;;;17.50;;
1957;SDS011;979;51.076;13.748;2023-05-07T14:23:14;18.47;;;17.67;;
1957;SDS011;979;51.076;13.748;2023-05-07T14:25:45;19.13;;;18.33;;
1957;SDS011;979;51.076;13.748;2023-05-07T14:28:14;18.80;;;18.10;;
1957;SDS011;979;51.076;13.748;2023-05-07T14:30:42;19.10;;;18.40;;
1957;SDS011;979;51.076;13.748;2023-05-07T14:33:10;18.97;;;18.20;;
1957;SDS011;979;51.076;13.748;2023-05-07T14:35:39;20.07;;;19.27;;
1957;SDS011;979;51.076;13.748;2023-05-07T14:38:07;19.00;;;18.30;;
1957;SDS011;979;51.076;13.748;2023-05-07T14:40:36;18.80;;;18.10;;
1957;SDS011;979;51.076;13.748;2023-05-07T14:43:06;17.83;;;17.03;;
1957;SDS011;979;51.076;13.748;2023-05-07T14:45:34;19.60;;;18.90;;
1957;SDS011;979;51.076;13.748;2023-05-07T14:48:03;20.43;;;19.63;;
1957;SDS011;979;51.076;13.748;2023-05-07T14:50:32;21.17;;;20.27;;
1957;SDS011;979;51.076;13.748;2023-05-07T14:53:00;19.50;;;18.60;;
1957;SDS011;979;51.076;13.748;2023-05-07T14:55:28;19.13;;;18.43;;
1957;SDS011;979;51.076;13.748;2023-05-07T14:57:59;18.00;;;17.27;;
1957;SDS011;979;51.076;13.748;2023-05-07T15:00:29;20.13;;;19.33;;
1957;SDS011;979;51.076;13.748;2023-05-07T15:03:01;21.00;;;20.20;;
1957;SDS011;979;51.076;13.748;2023-05-07T15:05:34;20.70;;;19.80;;
1957;SDS011;979;51.076;13.748;2023-05-07T15:08:03;20.10;;;19.30;;
1957;SDS011;979;51.076;13.748;2023-05-07T15:10:34;19.97;;;19.17;;
1957;SDS011;979;51.076;13.748;2023-05-07T15:13:07;19.90;;;19.10;;
1957;SDS011;979;51.076;13.748;2023-05-07T15:15:42;20.33;;;19.53;;
1957;SDS011;979;51.076;13.748;2023-05-07T15:18:12;21.47;;;20.47;;
1957;SDS011;979;51.076;13.748;2023-05-07T15:20:41;21.77;;;20.87;;
1957;SDS011;979;51.076;13.748;2023-05-07T15:23:09;21.03;;;20.13;;
1957;SDS011;979;51.076;13.748;2023-05-07T15:25:39;20.43;;;19.53;;
1957;SDS011;979;51.076;13.748;2023-05-07T15:28:08;20.50;;;19.70;;
1957;SDS011;979;51.076;13.748;2023-05-07T15:30:38;21.07;;;20.13;;
1957;SDS011;979;51.076;13.748;2023-05-07T15:33:07;22.10;;;21.10;;
1957;SDS011;979;51.076;13.748;2023-05-07T15:35:36;21.10;;;20.10;;
1957;SDS011;979;51.076;13.748;2023-05-07T15:38:04;20.50;;;19.60;;
1957;SDS011;979;51.076;13.748;2023-05-07T15:40:34;21.13;;;20.13;;
1957;SDS011;979;51.076;13.748;2023-05-07T15:43:11;23.07;;;21.97;;
1957;SDS011;979;51.076;13.748;2023-05-07T15:45:40;22.10;;;21.03;;
1957;SDS011;979;51.076;13.748;2023-05-07T15:48:13;21.90;;;20.90;;
1957;SDS011;979;51.076;13.748;2023-05-07T15:50:41;22.70;;;21.50;;
1957;SDS011;979;51.076;13.748;2023-05-07T15:53:09;21.80;;;20.73;;
1957;SDS011;979;51.076;13.748;2023-05-07T15:55:42;23.10;;;22.00;;
1957;SDS011;979;51.076;13.748;2023-05-07T15:58:12;22.90;;;21.80;;
1957;SDS011;979;51.076;13.748;2023-05-07T16:00:41;22.67;;;21.67;;
1957;SDS011;979;51.076;13.748;2023-05-07T16:03:09;22.10;;;21.00;;